sensor_id;sensor_type;location;lat;lon;timestamp;temperature;humidity
24772;DHT22;12870;52.274;9.754;2023-12-07T00:01:15;3.90;99.90
24772;DHT22;12870;52.274;9.754;2023-12-07T00:03:41;3.80;99.90
24772;DHT22;12870;52.274;9.754;2023-12-07T00:06:06;3.90;99.90
24772;DHT22;12870;52.274;9.754;2023-12-07T00:08:32;3.80;99.90
24772;DHT22;12870;52.274;9.754;2023-12-07T00:10:57;3.80;99.90
24772;DHT22;12870;52.274;9.754;2023-12-07T00:13:23;3.90;99.90
24772;DHT22;12870;52.274;9.754;2023-12-07T00:15:49;3.90;99.90
24772;DHT22;12870;52.274;9.754;2023-12-07T00:18:14;3.90;99.90
24772;DHT22;12870;52.274;9.754;2023-12-07T00:20:40;3.90;99.90
24772;DHT22;12870;52.274;9.754;2023-12-07T00:23:05;3.90;99.90
24772;DHT22;12870;52.274;9.754;2023-12-07T00:25:31;3.90;99.90
24772;DHT22;12870;52.274;9.754;2023-12-07T00:27:56;3.90;99.90
24772;DHT22;12870;52.274;9.754;2023-12-07T00:30:22;3.90;99.90
24772;DHT22;12870;52.274;9.754;2023-12-07T00:32:48;3.90;99.90
24772;DHT22;12870;52.274;9.754;2023-12-07T00:35:13;4.00;99.90
24772;DHT22;12870;52.274;9.754;2023-12-07T00:37:40;4.00;99.90
24772;DHT22;12870;52.274;9.754;2023-12-07T00:40:06;4.00;99.90
24772;DHT22;12870;52.274;9.754;2023-12-07T00:42:33;4.10;99.90
24772;DHT22;12870;52.274;9.754;2023-12-07T00:45:00;4.10;99.90
24772;DHT22;12870;52.274;9.754;2023-12-07T00:47:25;4.10;99.90
24772;DHT22;12870;52.274;9.754;2023-12-07T00:49:50;4.10;99.90
24772;DHT22;12870;52.274;9.754;2023-12-07T00:52:17;4.00;99.90
24772;DHT22;12870;52.274;9.754;2023-12-07T00:54:42;4.00;99.90
24772;DHT22;12870;52.274;9.754;2023-12-07T00:57:08;4.00;99.90
24772;DHT22;12870;52.274;9.754;2023-12-07T00:59:33;4.00;99.90
24772;DHT22;12870;52.274;9.754;2023-12-07T01:02:06;4.00;99.90
24772;DHT22;12870;52.274;9.754;2023-12-07T01:04:32;4.00;99.90
24772;DHT22;12870;52.274;9.754;2023-12-07T01:06:58;4.00;99.90
24772;DHT22;12870;52.274;9.754;2023-12-07T01:09:24;4.00;99.90
24772;DHT22;12870;52.274;9.754;2023-12-07T01:11:50;4.00;99.90
24772;DHT22;12870;52.274;9.754;2023-12-07T01:14:16;4.00;99.90
24772;DHT22;12870;52.274;9.754;2023-12-07T01:16:43;4.00;99.90
24772;DHT22;12870;52.274;9.754;2023-12-07T01:19:09;4.00;99.90
24772;DHT22;12870;52.274;9.754;2023-12-07T01:21:34;4.00;99.90
24772;DHT22;12870;52.274;9.754;2023-12-07T01:24:00;4.10;99.90
24772;DHT22;12870;52.274;9.754;2023-12-07T01:26:25;4.10;99.90
24772;DHT22;12870;52.274;9.754;2023-12-07T01:28:51;4.10;99.90
24772;DHT22;12870;52.274;9.754;2023-12-07T01:31:17;4.10;99.90
24772;DHT22;12870;52.274;9.754;2023-12-07T01:33:43;4.10;99.90
24772;DHT22;12870;52.274;9.754;2023-12-07T01:36:09;4.20;99.90
24772;DHT22;12870;52.274;9.754;2023-12-07T01:38:35;4.10;99.90
24772;DHT22;12870;52.274;9.754;2023-12-07T01:41:00;4.10;99.90
24772;DHT22;12870;52.274;9.754;2023-12-07T01:43:26;4.10;99.90
24772;DHT22;12870;52.274;9.754;2023-12-07T01:45:52;4.10;99.90
24772;DHT22;12870;52.274;9.754;2023-12-07T01:48:20;4.10;99.90
24772;DHT22;12870;52.274;9.754;2023-12-07T01:50:47;4.10;99.90
24772;DHT22;12870;52.274;9.754;2023-12-07T01:53:13;4.10;99.90
24772;DHT22;12870;52.274;9.754;2023-12-07T01:55:39;4.10;99.90
24772;DHT22;12870;52.274;9.754;2023-12-07T01:58:06;4.20;99.90
24772;DHT22;12870;52.274;9.754;2023-12-07T02:00:33;4.20;99.90
24772;DHT22;12870;52.274;9.754;2023-12-07T02:03:00;4.20;99.90
24772;DHT22;12870;52.274;9.754;2023-12-07T02:05:26;4.10;99.90
24772;DHT22;12870;52.274;9.754;2023-12-07T02:07:52;4.20;99.90
24772;DHT22;12870;52.274;9.754;2023-12-07T02:10:18;4.20;99.90
24772;DHT22;12870;52.274;9.754;2023-12-07T02:12:44;4.20;99.90
24772;DHT22;12870;52.274;9.754;2023-12-07T02:15:10;4.20;99.90
24772;DHT22;12870;52.274;9.754;2023-12-07T02:17:59;4.20;99.90
24772;DHT22;12870;52.274;9.754;2023-12-07T02:20:44;4.20;99.90
24772;DHT22;12870;52.274;9.754;2023-12-07T02:23:15;4.20;99.90
24772;DHT22;12870;52.274;9.754;2023-12-07T02:28:49;4.20;99.90
24772;DHT22;12870;52.274;9.754;2023-12-07T02:31:15;4.30;99.90
24772;DHT22;12870;52.274;9.754;2023-12-07T02:33:40;4.30;99.90
24772;DHT22;12870;52.274;9.754;2023-12-07T02:36:06;4.30;99.90
24772;DHT22;12870;52.274;9.754;2023-12-07T02:38:32;4.30;99.90
24772;DHT22;12870;52.274;9.754;2023-12-07T02:40:59;4.30;99.90
24772;DHT22;12870;52.274;9.754;2023-12-07T02:43:26;4.20;99.90
24772;DHT22;12870;52.274;9.754;2023-12-07T02:45:52;4.30;99.90
24772;DHT22;12870;52.274;9.754;2023-12-07T02:48:20;4.20;99.90
24772;DHT22;12870;52.274;9.754;2023-12-07T02:50:46;4.20;99.90
24772;DHT22;12870;52.274;9.754;2023-12-07T02:53:11;4.30;99.90
24772;DHT22;12870;52.274;9.754;2023-12-07T02:55:37;4.30;99.90
24772;DHT22;12870;52.274;9.754;2023-12-07T02:58:03;4.30;99.90
24772;DHT22;12870;52.274;9.754;2023-12-07T03:00:29;4.20;99.90
24772;DHT22;12870;52.274;9.754;2023-12-07T03:02:54;4.20;99.90
24772;DHT22;12870;52.274;9.754;2023-12-07T03:05:20;4.20;99.90
24772;DHT22;12870;52.274;9.754;2023-12-07T03:07:45;4.20;99.90
24772;DHT22;12870;52.274;9.754;2023-12-07T03:10:11;4.20;99.90
24772;DHT22;12870;52.274;9.754;2023-12-07T03:12:37;4.20;99.90
24772;DHT22;12870;52.274;9.754;2023-12-07T03:15:02;4.30;99.90
24772;DHT22;12870;52.274;9.754;2023-12-07T03:17:29;4.40;99.90
24772;DHT22;12870;52.274;9.754;2023-12-07T03:19:55;4.30;99.90
24772;DHT22;12870;52.274;9.754;2023-12-07T03:22:21;4.30;99.90
24772;DHT22;12870;52.274;9.754;2023-12-07T03:24:50;4.30;99.90
24772;DHT22;12870;52.274;9.754;2023-12-07T03:27:16;4.30;99.90
24772;DHT22;12870;52.274;9.754;2023-12-07T03:29:42;4.30;99.90
24772;DHT22;12870;52.274;9.754;2023-12-07T03:32:07;4.30;99.90
24772;DHT22;12870;52.274;9.754;2023-12-07T03:34:33;4.30;99.90
24772;DHT22;12870;52.274;9.754;2023-12-07T03:36:58;4.40;99.90
24772;DHT22;12870;52.274;9.754;2023-12-07T03:39:24;4.40;99.90
24772;DHT22;12870;52.274;9.754;2023-12-07T03:41:51;4.30;99.90
24772;DHT22;12870;52.274;9.754;2023-12-07T03:44:17;4.30;99.90
24772;DHT22;12870;52.274;9.754;2023-12-07T03:46:42;4.40;99.90
24772;DHT22;12870;52.274;9.754;2023-12-07T03:49:08;4.30;99.90
24772;DHT22;12870;52.274;9.754;2023-12-07T03:51:33;4.30;99.90
24772;DHT22;12870;52.274;9.754;2023-12-07T03:54:01;4.30;99.90
24772;DHT22;12870;52.274;9.754;2023-12-07T03:56:28;4.30;99.90
24772;DHT22;12870;52.274;9.754;2023-12-07T03:58:55;4.30;99.90
24772;DHT22;12870;52.274;9.754;2023-12-07T04:01:26;4.30;99.90
24772;DHT22;12870;52.274;9.754;2023-12-07T04:03:53;4.30;99.90
24772;DHT22;12870;52.274;9.754;2023-12-07T04:06:20;4.30;99.90
24772;DHT22;12870;52.274;9.754;2023-12-07T04:08:46;4.30;99.90
24772;DHT22;12870;52.274;9.754;2023-12-07T04:11:12;4.30;99.90
24772;DHT22;12870;52.274;9.754;2023-12-07T04:13:38;4.20;99.90
24772;DHT22;12870;52.274;9.754;2023-12-07T04:16:04;4.30;99.90
24772;DHT22;12870;52.274;9.754;2023-12-07T04:18:29;4.20;99.90
24772;DHT22;12870;52.274;9.754;2023-12-07T04:20:55;4.20;99.90
24772;DHT22;12870;52.274;9.754;2023-12-07T04:23:20;4.30;99.90
24772;DHT22;12870;52.274;9.754;2023-12-07T04:25:46;4.30;99.90
24772;DHT22;12870;52.274;9.754;2023-12-07T04:28:11;4.30;99.90
24772;DHT22;12870;52.274;9.754;2023-12-07T04:30:37;4.20;99.90
24772;DHT22;12870;52.274;9.754;2023-12-07T04:33:03;4.30;99.90
24772;DHT22;12870;52.274;9.754;2023-12-07T04:35:30;4.40;99.90
24772;DHT22;12870;52.274;9.754;2023-12-07T04:37:55;4.30;99.90
24772;DHT22;12870;52.274;9.754;2023-12-07T04:40:21;4.40;99.90
24772;DHT22;12870;52.274;9.754;2023-12-07T04:42:46;4.40;99.90
24772;DHT22;12870;52.274;9.754;2023-12-07T04:45:12;4.50;99.90
24772;DHT22;12870;52.274;9.754;2023-12-07T04:47:38;4.40;99.90
24772;DHT22;12870;52.274;9.754;2023-12-07T04:50:04;4.50;99.90
24772;DHT22;12870;52.274;9.754;2023-12-07T04:52:29;4.50;99.90
24772;DHT22;12870;52.274;9.754;2023-12-07T04:54:55;4.50;99.90
24772;DHT22;12870;52.274;9.754;2023-12-07T04:57:21;4.60;99.90
24772;DHT22;12870;52.274;9.754;2023-12-07T04:59:46;4.60;99.90
24772;DHT22;12870;52.274;9.754;2023-12-07T05:02:16;4.60;99.90
24772;DHT22;12870;52.274;9.754;2023-12-07T05:04:42;4.60;99.90
24772;DHT22;12870;52.274;9.754;2023-12-07T05:07:08;4.50;99.90
24772;DHT22;12870;52.274;9.754;2023-12-07T05:09:33;4.50;99.90
24772;DHT22;12870;52.274;9.754;2023-12-07T05:11:59;4.50;99.90
24772;DHT22;12870;52.274;9.754;2023-12-07T05:14:24;4.40;99.90
24772;DHT22;12870;52.274;9.754;2023-12-07T05:16:50;4.30;99.90
24772;DHT22;12870;52.274;9.754;2023-12-07T05:19:19;4.30;99.90
24772;DHT22;12870;52.274;9.754;2023-12-07T05:21:46;4.20;99.90
24772;DHT22;12870;52.274;9.754;2023-12-07T05:24:12;4.10;99.90
24772;DHT22;12870;52.274;9.754;2023-12-07T05:26:38;4.10;99.90
24772;DHT22;12870;52.274;9.754;2023-12-07T05:29:03;4.10;99.90
24772;DHT22;12870;52.274;9.754;2023-12-07T05:31:29;4.10;99.90
24772;DHT22;12870;52.274;9.754;2023-12-07T05:33:55;4.10;99.90
24772;DHT22;12870;52.274;9.754;2023-12-07T05:36:21;4.10;99.90
24772;DHT22;12870;52.274;9.754;2023-12-07T05:38:46;4.10;99.90
24772;DHT22;12870;52.274;9.754;2023-12-07T05:41:12;4.20;99.90
24772;DHT22;12870;52.274;9.754;2023-12-07T05:43:40;4.10;99.90
24772;DHT22;12870;52.274;9.754;2023-12-07T05:46:07;4.00;99.90
24772;DHT22;12870;52.274;9.754;2023-12-07T05:48:32;4.00;99.90
24772;DHT22;12870;52.274;9.754;2023-12-07T05:50:58;4.00;99.90
24772;DHT22;12870;52.274;9.754;2023-12-07T05:53:24;4.00;99.90
24772;DHT22;12870;52.274;9.754;2023-12-07T05:55:50;4.00;99.90
24772;DHT22;12870;52.274;9.754;2023-12-07T05:58:16;3.90;99.90
24772;DHT22;12870;52.274;9.754;2023-12-07T06:00:43;4.00;99.90
24772;DHT22;12870;52.274;9.754;2023-12-07T06:03:09;4.00;99.90
24772;DHT22;12870;52.274;9.754;2023-12-07T06:05:37;4.00;99.90
24772;DHT22;12870;52.274;9.754;2023-12-07T06:08:03;4.00;99.90
24772;DHT22;12870;52.274;9.754;2023-12-07T06:10:30;4.00;99.90
24772;DHT22;12870;52.274;9.754;2023-12-07T06:12:55;4.00;99.90
24772;DHT22;12870;52.274;9.754;2023-12-07T06:15:22;4.00;99.90
24772;DHT22;12870;52.274;9.754;2023-12-07T06:17:48;4.00;99.90
24772;DHT22;12870;52.274;9.754;2023-12-07T06:20:13;4.00;99.90
24772;DHT22;12870;52.274;9.754;2023-12-07T06:22:39;4.00;99.90
24772;DHT22;12870;52.274;9.754;2023-12-07T06:25:05;4.00;99.90
24772;DHT22;12870;52.274;9.754;2023-12-07T06:27:31;4.00;99.90
24772;DHT22;12870;52.274;9.754;2023-12-07T06:29:56;4.00;99.90
24772;DHT22;12870;52.274;9.754;2023-12-07T06:32:22;4.00;99.90
24772;DHT22;12870;52.274;9.754;2023-12-07T06:34:47;4.00;99.90
24772;DHT22;12870;52.274;9.754;2023-12-07T06:37:13;4.00;99.90
24772;DHT22;12870;52.274;9.754;2023-12-07T06:39:39;4.00;99.90
24772;DHT22;12870;52.274;9.754;2023-12-07T06:42:04;4.00;99.90
24772;DHT22;12870;52.274;9.754;2023-12-07T06:44:30;3.90;99.90
24772;DHT22;12870;52.274;9.754;2023-12-07T06:46:55;3.90;99.90
24772;DHT22;12870;52.274;9.754;2023-12-07T06:49:21;3.90;99.90
24772;DHT22;12870;52.274;9.754;2023-12-07T06:51:46;3.90;99.90
24772;DHT22;12870;52.274;9.754;2023-12-07T06:54:12;3.90;99.90
24772;DHT22;12870;52.274;9.754;2023-12-07T06:56:39;3.90;99.90
24772;DHT22;12870;52.274;9.754;2023-12-07T06:59:04;4.00;99.90
24772;DHT22;12870;52.274;9.754;2023-12-07T07:01:30;4.00;99.90
24772;DHT22;12870;52.274;9.754;2023-12-07T07:03:55;4.10;99.90
24772;DHT22;12870;52.274;9.754;2023-12-07T07:06:22;4.10;99.90
24772;DHT22;12870;52.274;9.754;2023-12-07T07:08:47;4.10;99.90
24772;DHT22;12870;52.274;9.754;2023-12-07T07:11:14;4.00;99.90
24772;DHT22;12870;52.274;9.754;2023-12-07T07:13:40;4.10;99.90
24772;DHT22;12870;52.274;9.754;2023-12-07T07:16:08;4.00;99.90
24772;DHT22;12870;52.274;9.754;2023-12-07T07:18:33;4.00;99.90
24772;DHT22;12870;52.274;9.754;2023-12-07T07:21:00;4.00;99.90
24772;DHT22;12870;52.274;9.754;2023-12-07T07:23:26;3.90;99.90
24772;DHT22;12870;52.274;9.754;2023-12-07T07:25:51;3.90;99.90
24772;DHT22;12870;52.274;9.754;2023-12-07T07:28:17;3.90;99.90
24772;DHT22;12870;52.274;9.754;2023-12-07T07:30:43;3.90;99.90
24772;DHT22;12870;52.274;9.754;2023-12-07T07:33:08;3.90;99.90
24772;DHT22;12870;52.274;9.754;2023-12-07T07:35:34;3.80;99.90
24772;DHT22;12870;52.274;9.754;2023-12-07T07:37:59;3.90;99.90
24772;DHT22;12870;52.274;9.754;2023-12-07T07:40:25;3.90;99.90
24772;DHT22;12870;52.274;9.754;2023-12-07T07:42:50;4.00;99.90
24772;DHT22;12870;52.274;9.754;2023-12-07T07:45:16;4.00;99.90
24772;DHT22;12870;52.274;9.754;2023-12-07T07:47:42;4.00;99.90
24772;DHT22;12870;52.274;9.754;2023-12-07T07:50:08;4.10;99.90
24772;DHT22;12870;52.274;9.754;2023-12-07T07:52:34;4.10;99.90
24772;DHT22;12870;52.274;9.754;2023-12-07T07:55:00;4.10;99.90
24772;DHT22;12870;52.274;9.754;2023-12-07T07:57:28;4.00;99.90
24772;DHT22;12870;52.274;9.754;2023-12-07T07:59:54;4.00;99.90
24772;DHT22;12870;52.274;9.754;2023-12-07T08:02:20;4.10;99.90
24772;DHT22;12870;52.274;9.754;2023-12-07T08:04:47;4.10;99.90
24772;DHT22;12870;52.274;9.754;2023-12-07T08:07:13;4.00;99.90
24772;DHT22;12870;52.274;9.754;2023-12-07T08:09:38;4.10;99.90
24772;DHT22;12870;52.274;9.754;2023-12-07T08:12:05;4.10;99.90
24772;DHT22;12870;52.274;9.754;2023-12-07T08:14:31;4.10;99.90
24772;DHT22;12870;52.274;9.754;2023-12-07T08:16:57;4.10;99.90
24772;DHT22;12870;52.274;9.754;2023-12-07T08:19:22;4.00;99.90
24772;DHT22;12870;52.274;9.754;2023-12-07T08:21:48;4.00;99.90
24772;DHT22;12870;52.274;9.754;2023-12-07T08:24:15;4.10;99.90
24772;DHT22;12870;52.274;9.754;2023-12-07T08:26:41;4.10;99.90
24772;DHT22;12870;52.274;9.754;2023-12-07T08:29:06;4.10;99.90
24772;DHT22;12870;52.274;9.754;2023-12-07T08:31:32;4.20;99.90
24772;DHT22;12870;52.274;9.754;2023-12-07T08:33:57;4.20;99.90
24772;DHT22;12870;52.274;9.754;2023-12-07T08:36:23;4.20;99.90
24772;DHT22;12870;52.274;9.754;2023-12-07T08:38:48;4.10;99.90
24772;DHT22;12870;52.274;9.754;2023-12-07T08:41:14;4.10;99.90
24772;DHT22;12870;52.274;9.754;2023-12-07T08:43:39;4.10;99.90
24772;DHT22;12870;52.274;9.754;2023-12-07T08:46:05;4.20;99.90
24772;DHT22;12870;52.274;9.754;2023-12-07T08:48:33;4.10;99.90
24772;DHT22;12870;52.274;9.754;2023-12-07T08:50:59;4.10;99.90
24772;DHT22;12870;52.274;9.754;2023-12-07T08:53:24;4.10;99.90
24772;DHT22;12870;52.274;9.754;2023-12-07T08:55:52;4.10;99.90
24772;DHT22;12870;52.274;9.754;2023-12-07T08:58:18;4.10;99.90
24772;DHT22;12870;52.274;9.754;2023-12-07T09:00:43;4.10;99.90
24772;DHT22;12870;52.274;9.754;2023-12-07T09:03:09;4.20;99.90
24772;DHT22;12870;52.274;9.754;2023-12-07T09:05:35;4.20;99.90
24772;DHT22;12870;52.274;9.754;2023-12-07T09:08:01;4.10;99.90
24772;DHT22;12870;52.274;9.754;2023-12-07T09:10:26;4.10;99.90
24772;DHT22;12870;52.274;9.754;2023-12-07T09:12:53;4.10;99.90
24772;DHT22;12870;52.274;9.754;2023-12-07T09:15:18;4.20;99.90
24772;DHT22;12870;52.274;9.754;2023-12-07T09:17:44;4.20;99.90
24772;DHT22;12870;52.274;9.754;2023-12-07T09:20:10;4.10;99.90
24772;DHT22;12870;52.274;9.754;2023-12-07T09:22:46;4.20;99.90
24772;DHT22;12870;52.274;9.754;2023-12-07T09:25:15;4.20;99.90
24772;DHT22;12870;52.274;9.754;2023-12-07T09:27:41;4.20;99.90
24772;DHT22;12870;52.274;9.754;2023-12-07T09:30:08;4.20;99.90
24772;DHT22;12870;52.274;9.754;2023-12-07T09:32:37;4.30;99.90
24772;DHT22;12870;52.274;9.754;2023-12-07T09:35:07;4.30;99.90
24772;DHT22;12870;52.274;9.754;2023-12-07T09:37:36;4.30;99.90
24772;DHT22;12870;52.274;9.754;2023-12-07T09:40:02;4.30;99.90
24772;DHT22;12870;52.274;9.754;2023-12-07T09:42:30;4.30;99.90
24772;DHT22;12870;52.274;9.754;2023-12-07T09:44:55;4.30;99.90
24772;DHT22;12870;52.274;9.754;2023-12-07T09:47:21;4.30;99.90
24772;DHT22;12870;52.274;9.754;2023-12-07T09:49:46;4.40;99.90
24772;DHT22;12870;52.274;9.754;2023-12-07T09:52:13;4.50;99.90
24772;DHT22;12870;52.274;9.754;2023-12-07T09:54:42;4.50;99.90
24772;DHT22;12870;52.274;9.754;2023-12-07T09:57:09;4.60;99.90
24772;DHT22;12870;52.274;9.754;2023-12-07T09:59:35;4.50;99.90
24772;DHT22;12870;52.274;9.754;2023-12-07T10:02:01;4.60;99.90
24772;DHT22;12870;52.274;9.754;2023-12-07T10:04:27;4.60;99.90
24772;DHT22;12870;52.274;9.754;2023-12-07T10:06:53;4.60;99.90
24772;DHT22;12870;52.274;9.754;2023-12-07T10:09:19;4.60;99.90
24772;DHT22;12870;52.274;9.754;2023-12-07T10:11:46;4.60;99.90
24772;DHT22;12870;52.274;9.754;2023-12-07T10:14:12;4.60;99.90
24772;DHT22;12870;52.274;9.754;2023-12-07T10:16:37;4.70;99.90
24772;DHT22;12870;52.274;9.754;2023-12-07T10:19:16;4.60;99.90
24772;DHT22;12870;52.274;9.754;2023-12-07T10:21:50;4.60;99.90
24772;DHT22;12870;52.274;9.754;2023-12-07T10:24:17;4.60;99.90
24772;DHT22;12870;52.274;9.754;2023-12-07T10:26:44;4.60;99.90
24772;DHT22;12870;52.274;9.754;2023-12-07T10:29:10;4.60;99.90
24772;DHT22;12870;52.274;9.754;2023-12-07T10:31:36;4.60;99.90
24772;DHT22;12870;52.274;9.754;2023-12-07T10:34:02;4.60;99.90
24772;DHT22;12870;52.274;9.754;2023-12-07T10:36:28;4.60;99.90
24772;DHT22;12870;52.274;9.754;2023-12-07T10:38:54;4.70;99.90
24772;DHT22;12870;52.274;9.754;2023-12-07T10:41:20;4.70;99.90
24772;DHT22;12870;52.274;9.754;2023-12-07T10:44:07;4.80;99.90
24772;DHT22;12870;52.274;9.754;2023-12-07T10:46:33;4.90;99.90
24772;DHT22;12870;52.274;9.754;2023-12-07T10:49:01;5.00;99.90
24772;DHT22;12870;52.274;9.754;2023-12-07T10:51:38;4.90;99.90
24772;DHT22;12870;52.274;9.754;2023-12-07T10:54:07;4.90;99.90
24772;DHT22;12870;52.274;9.754;2023-12-07T10:56:44;4.90;99.90
24772;DHT22;12870;52.274;9.754;2023-12-07T10:59:11;4.90;99.90
24772;DHT22;12870;52.274;9.754;2023-12-07T11:01:39;4.90;99.90
24772;DHT22;12870;52.274;9.754;2023-12-07T11:04:06;4.90;99.90
24772;DHT22;12870;52.274;9.754;2023-12-07T11:06:32;4.90;99.90
24772;DHT22;12870;52.274;9.754;2023-12-07T11:09:01;4.90;99.90
24772;DHT22;12870;52.274;9.754;2023-12-07T11:11:51;4.90;99.90
24772;DHT22;12870;52.274;9.754;2023-12-07T11:14:18;5.00;99.90
24772;DHT22;12870;52.274;9.754;2023-12-07T11:16:46;5.00;99.90
24772;DHT22;12870;52.274;9.754;2023-12-07T11:22:00;5.00;99.90
24772;DHT22;12870;52.274;9.754;2023-12-07T11:24:25;4.90;99.90
24772;DHT22;12870;52.274;9.754;2023-12-07T11:26:57;4.80;99.90
24772;DHT22;12870;52.274;9.754;2023-12-07T11:29:29;4.90;99.90
24772;DHT22;12870;52.274;9.754;2023-12-07T11:32:01;4.90;99.90
24772;DHT22;12870;52.274;9.754;2023-12-07T11:34:39;4.90;99.90
24772;DHT22;12870;52.274;9.754;2023-12-07T11:37:08;5.00;99.90
24772;DHT22;12870;52.274;9.754;2023-12-07T11:39:39;5.10;99.90
24772;DHT22;12870;52.274;9.754;2023-12-07T11:42:16;5.10;99.90
24772;DHT22;12870;52.274;9.754;2023-12-07T11:44:42;5.20;99.90
24772;DHT22;12870;52.274;9.754;2023-12-07T11:47:10;5.30;99.90
24772;DHT22;12870;52.274;9.754;2023-12-07T11:49:42;5.30;99.90
24772;DHT22;12870;52.274;9.754;2023-12-07T11:52:19;5.30;99.90
24772;DHT22;12870;52.274;9.754;2023-12-07T11:54:46;5.30;99.90
24772;DHT22;12870;52.274;9.754;2023-12-07T11:57:13;5.30;99.90
24772;DHT22;12870;52.274;9.754;2023-12-07T11:59:38;5.40;99.90
24772;DHT22;12870;52.274;9.754;2023-12-07T12:02:04;5.50;99.90
24772;DHT22;12870;52.274;9.754;2023-12-07T12:04:30;5.60;99.90
24772;DHT22;12870;52.274;9.754;2023-12-07T12:06:55;5.60;99.90
24772;DHT22;12870;52.274;9.754;2023-12-07T12:09:21;5.60;99.90
24772;DHT22;12870;52.274;9.754;2023-12-07T12:11:47;5.60;99.90
24772;DHT22;12870;52.274;9.754;2023-12-07T12:14:16;5.60;99.90
24772;DHT22;12870;52.274;9.754;2023-12-07T12:16:51;5.70;99.90
24772;DHT22;12870;52.274;9.754;2023-12-07T12:19:16;5.60;99.90
24772;DHT22;12870;52.274;9.754;2023-12-07T12:21:42;5.70;99.90
24772;DHT22;12870;52.274;9.754;2023-12-07T12:24:10;5.70;99.90
24772;DHT22;12870;52.274;9.754;2023-12-07T12:26:37;5.70;99.90
24772;DHT22;12870;52.274;9.754;2023-12-07T12:29:05;5.80;99.90
24772;DHT22;12870;52.274;9.754;2023-12-07T12:31:31;5.80;99.90
24772;DHT22;12870;52.274;9.754;2023-12-07T12:33:56;5.80;99.90
24772;DHT22;12870;52.274;9.754;2023-12-07T12:36:22;5.90;99.90
24772;DHT22;12870;52.274;9.754;2023-12-07T12:38:53;5.90;99.90
24772;DHT22;12870;52.274;9.754;2023-12-07T12:41:20;5.90;99.90
24772;DHT22;12870;52.274;9.754;2023-12-07T12:43:46;5.80;99.90
24772;DHT22;12870;52.274;9.754;2023-12-07T12:46:12;5.80;99.90
24772;DHT22;12870;52.274;9.754;2023-12-07T12:48:52;5.80;99.90
24772;DHT22;12870;52.274;9.754;2023-12-07T12:51:18;5.80;99.90
24772;DHT22;12870;52.274;9.754;2023-12-07T12:53:46;5.80;99.90
24772;DHT22;12870;52.274;9.754;2023-12-07T12:56:12;5.80;99.90
24772;DHT22;12870;52.274;9.754;2023-12-07T12:58:38;5.90;99.90
24772;DHT22;12870;52.274;9.754;2023-12-07T13:01:04;5.90;99.90
24772;DHT22;12870;52.274;9.754;2023-12-07T13:03:32;5.80;99.90
24772;DHT22;12870;52.274;9.754;2023-12-07T13:05:57;5.90;99.90
24772;DHT22;12870;52.274;9.754;2023-12-07T13:08:23;5.90;99.90
24772;DHT22;12870;52.274;9.754;2023-12-07T13:10:48;5.90;99.90
24772;DHT22;12870;52.274;9.754;2023-12-07T13:13:15;5.90;99.90
24772;DHT22;12870;52.274;9.754;2023-12-07T13:15:41;6.00;99.90
24772;DHT22;12870;52.274;9.754;2023-12-07T13:18:07;6.00;99.90
24772;DHT22;12870;52.274;9.754;2023-12-07T13:20:33;6.00;99.90
24772;DHT22;12870;52.274;9.754;2023-12-07T13:23:00;6.00;99.90
24772;DHT22;12870;52.274;9.754;2023-12-07T13:25:26;5.90;99.90
24772;DHT22;12870;52.274;9.754;2023-12-07T13:27:51;6.10;99.90
24772;DHT22;12870;52.274;9.754;2023-12-07T13:30:17;6.10;99.90
24772;DHT22;12870;52.274;9.754;2023-12-07T13:32:43;6.20;99.90
24772;DHT22;12870;52.274;9.754;2023-12-07T13:35:08;6.30;99.90
24772;DHT22;12870;52.274;9.754;2023-12-07T13:37:34;6.40;99.90
24772;DHT22;12870;52.274;9.754;2023-12-07T13:40:00;6.40;99.90
24772;DHT22;12870;52.274;9.754;2023-12-07T13:42:26;6.40;99.90
24772;DHT22;12870;52.274;9.754;2023-12-07T13:44:57;6.40;99.90
24772;DHT22;12870;52.274;9.754;2023-12-07T13:47:24;6.40;99.90
24772;DHT22;12870;52.274;9.754;2023-12-07T13:49:55;6.70;99.90
24772;DHT22;12870;52.274;9.754;2023-12-07T13:52:21;7.40;99.90
24772;DHT22;12870;52.274;9.754;2023-12-07T13:54:46;8.30;99.90
24772;DHT22;12870;52.274;9.754;2023-12-07T13:57:14;9.10;99.90
24772;DHT22;12870;52.274;9.754;2023-12-07T13:59:39;9.80;99.90
24772;DHT22;12870;52.274;9.754;2023-12-07T14:02:05;10.40;99.90
24772;DHT22;12870;52.274;9.754;2023-12-07T14:04:31;10.40;99.90
24772;DHT22;12870;52.274;9.754;2023-12-07T14:07:10;10.50;99.90
24772;DHT22;12870;52.274;9.754;2023-12-07T14:09:37;10.40;99.90
24772;DHT22;12870;52.274;9.754;2023-12-07T14:12:04;10.30;99.90
24772;DHT22;12870;52.274;9.754;2023-12-07T14:14:29;10.10;99.90
24772;DHT22;12870;52.274;9.754;2023-12-07T14:16:55;10.00;99.90
24772;DHT22;12870;52.274;9.754;2023-12-07T14:19:20;9.80;99.90
24772;DHT22;12870;52.274;9.754;2023-12-07T14:21:46;9.70;99.90
24772;DHT22;12870;52.274;9.754;2023-12-07T14:24:12;9.40;99.90
24772;DHT22;12870;52.274;9.754;2023-12-07T14:26:41;9.00;99.90
24772;DHT22;12870;52.274;9.754;2023-12-07T14:29:07;8.50;99.90
24772;DHT22;12870;52.274;9.754;2023-12-07T14:31:35;8.10;99.90
24772;DHT22;12870;52.274;9.754;2023-12-07T14:34:02;7.70;99.90
24772;DHT22;12870;52.274;9.754;2023-12-07T14:36:28;7.40;99.90
24772;DHT22;12870;52.274;9.754;2023-12-07T14:38:54;7.10;99.90
24772;DHT22;12870;52.274;9.754;2023-12-07T14:41:20;6.80;99.90
24772;DHT22;12870;52.274;9.754;2023-12-07T14:43:48;6.60;99.90
24772;DHT22;12870;52.274;9.754;2023-12-07T14:46:13;6.40;99.90
24772;DHT22;12870;52.274;9.754;2023-12-07T14:48:39;6.20;99.90
24772;DHT22;12870;52.274;9.754;2023-12-07T14:51:05;5.90;99.90
24772;DHT22;12870;52.274;9.754;2023-12-07T14:53:30;5.70;99.90
24772;DHT22;12870;52.274;9.754;2023-12-07T14:55:56;5.60;99.90
24772;DHT22;12870;52.274;9.754;2023-12-07T14:58:23;5.50;99.90
24772;DHT22;12870;52.274;9.754;2023-12-07T15:00:50;5.40;99.90
24772;DHT22;12870;52.274;9.754;2023-12-07T15:03:16;5.20;99.90
24772;DHT22;12870;52.274;9.754;2023-12-07T15:05:43;5.10;99.90
24772;DHT22;12870;52.274;9.754;2023-12-07T15:08:09;5.00;99.90
24772;DHT22;12870;52.274;9.754;2023-12-07T15:10:35;4.80;99.90
24772;DHT22;12870;52.274;9.754;2023-12-07T15:13:00;4.70;99.90
24772;DHT22;12870;52.274;9.754;2023-12-07T15:15:27;4.60;99.90
24772;DHT22;12870;52.274;9.754;2023-12-07T15:17:52;4.50;99.90
24772;DHT22;12870;52.274;9.754;2023-12-07T15:20:18;4.40;99.90
24772;DHT22;12870;52.274;9.754;2023-12-07T15:22:43;4.30;99.90
24772;DHT22;12870;52.274;9.754;2023-12-07T15:25:09;4.20;99.90
24772;DHT22;12870;52.274;9.754;2023-12-07T15:27:35;4.20;99.90
24772;DHT22;12870;52.274;9.754;2023-12-07T15:30:01;4.20;99.90
24772;DHT22;12870;52.274;9.754;2023-12-07T15:32:30;4.10;99.90
24772;DHT22;12870;52.274;9.754;2023-12-07T15:34:56;4.10;99.90
24772;DHT22;12870;52.274;9.754;2023-12-07T15:37:21;4.00;99.90
24772;DHT22;12870;52.274;9.754;2023-12-07T15:39:47;3.90;99.90
24772;DHT22;12870;52.274;9.754;2023-12-07T15:42:13;3.90;99.90
24772;DHT22;12870;52.274;9.754;2023-12-07T15:44:38;3.80;99.90
24772;DHT22;12870;52.274;9.754;2023-12-07T15:47:04;3.70;99.90